Time;durP1;ratioP1;P1;durP2;ratioP2;P2;SDS_P1;SDS_P2;PMS_P1;PMS_P2;Temp;Humidity;BMP_temperature;BMP_pressure;BME280_temperature;BME280_humidity;BME280_pressure;Samples;Min_cycle;Max_cycle;Signal;HPM_P1;HPM_P2
2024/01/13 00:01:39;;;;;;;0.00;0.00;;;26.80;49.20;;;;;;5031778;28;20217;-45
2024/01/13 00:04:10;;;;;;;0.00;0.00;;;26.80;49.20;;;;;;5031023;28;20283;-44
2024/01/13 00:06:42;;;;;;;0.00;0.00;;;26.80;49.20;;;;;;5031036;28;20196;-45
2024/01/13 00:09:13;;;;;;;0.00;0.00;;;26.80;49.20;;;;;;5011929;28;20606;-46
2024/01/13 00:11:44;;;;;;;0.00;0.00;;;26.80;49.20;;;;;;5010855;28;20220;-45
2024/01/13 00:14:14;;;;;;;0.00;0.00;;;26.80;49.20;;;;;;5011196;28;20203;-45
2024/01/13 00:16:45;;;;;;;0.00;0.00;;;26.90;49.30;;;;;;5020796;28;20203;-45
2024/01/13 00:19:16;;;;;;;0.00;0.00;;;26.90;48.80;;;;;;5031698;28;20278;-47
2024/01/13 00:21:48;;;;;;;0.00;0.00;;;26.90;49.30;;;;;;5031689;28;20216;-45
2024/01/13 00:24:19;;;;;;;0.00;0.00;;;26.90;49.90;;;;;;5031445;28;20203;-43
2024/01/13 00:26:49;;;;;;;0.00;0.00;;;27.00;49.30;;;;;;5031213;28;20699;-44
2024/01/13 00:29:20;;;;;;;0.00;0.00;;;27.00;49.30;;;;;;5030992;28;20195;-45
2024/01/13 00:31:50;;;;;;;0.00;0.00;;;27.00;49.30;;;;;;5031436;28;20220;-45
2024/01/13 00:34:21;;;;;;;0.00;0.00;;;27.00;49.30;;;;;;5035659;28;20644;-45
2024/01/13 00:36:54;;;;;;;0.00;0.00;;;27.00;49.30;;;;;;5031236;28;20200;-43
2024/01/13 00:39:24;;;;;;;0.00;0.00;;;27.00;49.40;;;;;;5028447;28;20219;-43
2024/01/13 00:41:55;;;;;;;0.00;0.00;;;27.00;49.30;;;;;;5031579;28;20224;-45
2024/01/13 00:44:25;;;;;;;0.00;0.00;;;27.10;49.40;;;;;;5026811;28;20208;-44
2024/01/13 00:46:56;;;;;;;0.00;0.00;;;27.10;49.40;;;;;;5012403;28;20201;-43
2024/01/13 00:49:27;;;;;;;0.00;0.00;;;27.10;49.40;;;;;;5011394;28;20653;-43
2024/01/13 00:51:59;;;;;;;0.00;0.00;;;27.10;49.50;;;;;;5012783;28;20224;-43
2024/01/13 00:54:30;;;;;;;0.00;0.00;;;27.10;49.50;;;;;;5031101;28;20290;-45
2024/01/13 00:57:00;;;;;;;0.00;0.00;;;27.10;49.60;;;;;;5031042;28;20208;-44
2024/01/13 00:59:31;;;;;;;0.00;0.00;;;27.10;49.60;;;;;;5030313;28;20568;-46
2024/01/13 01:02:01;;;;;;;0.00;0.00;;;27.20;49.60;;;;;;5029848;28;20710;-44
2024/01/13 01:04:32;;;;;;;0.00;0.00;;;27.20;49.70;;;;;;5031367;28;20207;-45
2024/01/13 01:07:05;;;;;;;0.00;0.00;;;27.20;49.60;;;;;;5031026;28;20204;-44
2024/01/13 01:09:35;;;;;;;0.00;0.00;;;27.20;50.20;;;;;;5030619;28;20207;-45
2024/01/13 01:12:09;;;;;;;0.00;0.00;;;27.20;49.70;;;;;;5031141;28;20224;-45
2024/01/13 01:14:40;;;;;;;0.00;0.00;;;27.20;49.70;;;;;;5031182;28;20206;-47
2024/01/13 01:17:11;;;;;;;0.00;0.00;;;27.30;49.90;;;;;;5029772;28;20659;-44
2024/01/13 01:19:41;;;;;;;0.00;0.00;;;27.30;49.80;;;;;;5030888;28;20251;-45
2024/01/13 01:22:14;;;;;;;0.00;0.00;;;27.30;49.80;;;;;;5030644;28;20216;-43
2024/01/13 01:24:44;;;;;;;0.00;0.00;;;27.30;49.80;;;;;;5031163;28;20211;-45
2024/01/13 01:27:15;;;;;;;0.00;0.00;;;27.30;49.80;;;;;;5025374;28;20668;-40
2024/01/13 01:29:48;;;;;;;0.00;0.00;;;27.40;49.70;;;;;;5010730;28;20201;-43
2024/01/13 01:32:19;;;;;;;0.00;0.00;;;27.40;49.70;;;;;;5025231;28;20216;-43
2024/01/13 01:34:50;;;;;;;0.00;0.00;;;27.40;49.70;;;;;;5011187;28;20204;-45
2024/01/13 01:37:23;;;;;;;0.00;0.00;;;27.40;49.70;;;;;;5016103;28;20231;-43
2024/01/13 01:39:53;;;;;;;0.00;0.00;;;27.40;49.70;;;;;;5030321;28;20715;-44
2024/01/13 01:42:24;;;;;;;0.00;0.00;;;27.50;49.70;;;;;;5030376;28;20219;-40
2024/01/13 01:44:55;;;;;;;0.00;0.00;;;27.50;49.70;;;;;;5029590;28;20211;-47
2024/01/13 01:47:26;;;;;;;0.00;0.00;;;27.50;49.70;;;;;;5030602;28;20215;-42
2024/01/13 01:49:57;;;;;;;0.00;0.00;;;27.50;49.80;;;;;;5030021;28;20200;-44
2024/01/13 01:52:30;;;;;;;0.00;0.00;;;27.50;49.80;;;;;;5030787;28;20282;-44
2024/01/13 01:55:00;;;;;;;0.00;0.00;;;27.50;49.80;;;;;;5030435;28;20202;-44
2024/01/13 01:57:31;;;;;;;0.00;0.00;;;27.60;49.80;;;;;;5030342;28;20215;-45
2024/01/13 02:00:03;;;;;;;0.00;0.00;;;27.60;49.80;;;;;;5028598;28;20770;-43
2024/01/13 02:02:34;;;;;;;0.00;0.00;;;27.60;49.80;;;;;;5030302;28;20226;-43
2024/01/13 02:05:05;;;;;;;0.00;0.00;;;27.60;49.80;;;;;;5029627;28;20200;-43
2024/01/13 02:07:40;;;;;;;0.00;0.00;;;27.70;49.80;;;;;;5029593;28;20626;-43
2024/01/13 02:10:11;;;;;;;0.00;0.00;;;27.70;49.70;;;;;;5030362;28;20208;-44
2024/01/13 02:12:42;;;;;;;0.00;0.00;;;27.70;49.70;;;;;;5009709;28;20719;-43
2024/01/13 02:15:13;;;;;;;0.00;0.00;;;27.80;49.70;;;;;;5010599;28;20208;-43
2024/01/13 02:17:44;;;;;;;0.00;0.00;;;27.80;49.70;;;;;;5010721;28;20291;-43
2024/01/13 02:20:15;;;;;;;0.00;0.00;;;27.80;49.70;;;;;;5010096;28;20243;-42
2024/01/13 02:22:47;;;;;;;0.00;0.00;;;27.80;49.70;;;;;;5012008;28;20223;-44
2024/01/13 02:25:20;;;;;;;0.00;0.00;;;27.90;49.80;;;;;;5009691;28;20236;-45
2024/01/13 02:27:50;;;;;;;0.00;0.00;;;27.90;49.70;;;;;;5009674;28;20617;-47
2024/01/13 02:30:21;;;;;;;0.00;0.00;;;27.90;49.70;;;;;;5009317;28;20267;-44
2024/01/13 02:32:51;;;;;;;0.00;0.00;;;28.00;49.80;;;;;;5025756;28;20220;-42
2024/01/13 02:35:22;;;;;;;0.00;0.00;;;28.00;49.90;;;;;;5033086;28;20203;-44
2024/01/13 02:37:54;;;;;;;0.00;0.00;;;28.00;49.70;;;;;;5033225;28;20208;-45
2024/01/13 02:40:25;;;;;;;0.00;0.00;;;28.00;49.70;;;;;;5032968;28;20726;-44
2024/01/13 02:42:56;;;;;;;0.00;0.00;;;28.00;49.70;;;;;;5032688;28;20216;-44
2024/01/13 02:45:26;;;;;;;0.00;0.00;;;28.00;49.70;;;;;;5033277;28;20196;-45
2024/01/13 02:48:03;;;;;;;0.00;0.00;;;28.10;49.60;;;;;;5032506;28;20195;-43
2024/01/13 02:50:34;;;;;;;0.00;0.00;;;28.10;49.50;;;;;;5032306;28;20207;-48
2024/01/13 02:53:06;;;;;;;0.00;0.00;;;28.20;49.50;;;;;;5031893;28;20200;-44
2024/01/13 02:55:39;;;;;;;0.00;0.00;;;28.20;49.50;;;;;;5032626;28;20652;-45
2024/01/13 02:58:10;;;;;;;0.00;0.00;;;28.20;49.30;;;;;;5033172;28;20196;-44
2024/01/13 03:00:41;;;;;;;0.00;0.00;;;28.30;49.40;;;;;;5032583;28;20235;-45
2024/01/13 03:03:11;;;;;;;0.00;0.00;;;28.30;49.30;;;;;;5032796;28;20196;-44
2024/01/13 03:05:42;;;;;;;0.00;0.00;;;28.40;49.30;;;;;;5032919;28;20614;-44
2024/01/13 03:08:14;;;;;;;0.00;0.00;;;28.40;49.30;;;;;;5032514;28;20204;-42
2024/01/13 03:10:45;;;;;;;0.00;0.00;;;28.40;49.20;;;;;;5032334;28;20196;-44
2024/01/13 03:13:16;;;;;;;0.00;0.00;;;28.40;49.30;;;;;;5032681;28;20223;-44
2024/01/13 03:15:46;;;;;;;0.00;0.00;;;28.50;49.90;;;;;;5032149;28;20667;-43
2024/01/13 03:18:17;;;;;;;0.00;0.00;;;28.50;49.30;;;;;;5031918;28;20667;-43
2024/01/13 03:20:46;;;;;;;0.00;0.00;;;28.50;49.30;;;;;;5032437;28;20220;-44
2024/01/13 03:23:18;;;;;;;0.00;0.00;;;28.60;49.30;;;;;;5032509;28;20200;-44
2024/01/13 03:25:49;;;;;;;0.00;0.00;;;28.60;49.30;;;;;;5032110;28;20254;-43
2024/01/13 03:28:20;;;;;;;0.00;0.00;;;28.60;49.30;;;;;;5031611;28;20607;-43
2024/01/13 03:30:50;;;;;;;0.00;0.00;;;28.70;49.40;;;;;;5031641;28;20222;-43
2024/01/13 03:33:21;;;;;;;0.00;0.00;;;28.70;49.30;;;;;;5030673;28;20196;-43
2024/01/13 03:35:52;;;;;;;0.00;0.00;;;28.80;49.40;;;;;;5029319;28;20199;-43
2024/01/13 03:38:25;;;;;;;0.00;0.00;;;28.80;49.40;;;;;;5031416;28;20200;-44
2024/01/13 03:40:55;;;;;;;0.00;0.00;;;28.90;49.30;;;;;;5028893;28;20684;-42
2024/01/13 03:43:26;;;;;;;0.00;0.00;;;28.90;49.20;;;;;;5031666;28;20212;-44
2024/01/13 03:45:56;;;;;;;0.00;0.00;;;28.90;49.00;;;;;;5032134;28;20200;-44
2024/01/13 03:48:27;;;;;;;0.00;0.00;;;28.90;49.00;;;;;;5031982;28;20196;-43
2024/01/13 03:50:58;;;;;;;0.00;0.00;;;29.00;49.00;;;;;;5031497;28;20203;-44
2024/01/13 03:53:31;;;;;;;0.00;0.00;;;29.10;49.00;;;;;;5031521;28;20246;-43
2024/01/13 03:56:02;;;;;;;0.00;0.00;;;29.10;48.90;;;;;;5031308;28;20651;-44
2024/01/13 03:58:32;;;;;;;0.00;0.00;;;29.10;48.90;;;;;;5031214;28;20212;-43
2024/01/13 04:01:03;;;;;;;0.00;0.00;;;29.20;48.90;;;;;;5031395;28;20227;-46
2024/01/13 04:03:33;;;;;;;0.00;0.00;;;29.20;48.80;;;;;;5031498;28;20200;-43
2024/01/13 04:06:06;;;;;;;0.00;0.00;;;29.20;48.80;;;;;;5031932;28;20204;-43
2024/01/13 04:08:38;;;;;;;0.00;0.00;;;29.30;48.80;;;;;;5023186;28;20649;-43
2024/01/13 04:11:10;;;;;;;0.00;0.00;;;29.30;48.70;;;;;;5011402;28;20220;-44
2024/01/13 04:13:40;;;;;;;0.00;0.00;;;29.40;48.80;;;;;;5011680;28;20262;-43
2024/01/13 04:16:11;;;;;;;0.00;0.00;;;29.40;48.70;;;;;;5011673;28;20200;-43
2024/01/13 04:18:42;;;;;;;0.00;0.00;;;29.40;48.70;;;;;;5011619;28;20560;-44
2024/01/13 04:21:12;;;;;;;0.00;0.00;;;29.50;48.70;;;;;;5011514;28;20240;-44
2024/01/13 04:23:45;;;;;;;0.00;0.00;;;29.50;48.60;;;;;;5011389;28;20200;-43
2024/01/13 04:26:16;;;;;;;0.00;0.00;;;29.50;48.40;;;;;;5011169;28;20204;-43
2024/01/13 04:28:46;;;;;;;0.00;0.00;;;29.60;48.50;;;;;;5023330;28;20231;-45
2024/01/13 04:31:17;;;;;;;0.00;0.00;;;29.60;48.40;;;;;;5030518;28;20224;-45
2024/01/13 04:33:47;;;;;;;0.00;0.00;;;29.60;48.40;;;;;;5030904;28;20671;-43
2024/01/13 04:36:18;;;;;;;0.00;0.00;;;29.70;48.40;;;;;;5031490;28;20196;-44
2024/01/13 04:38:51;;;;;;;0.00;0.00;;;29.70;48.40;;;;;;5031448;28;20203;-43
2024/01/13 04:41:22;;;;;;;0.00;0.00;;;29.70;48.30;;;;;;5031040;28;20311;-43
2024/01/13 04:43:52;;;;;;;0.00;0.00;;;29.80;48.30;;;;;;5031074;28;20234;-45
2024/01/13 04:46:23;;;;;;;0.00;0.00;;;29.80;48.30;;;;;;5031253;28;20204;-43
2024/01/13 04:48:53;;;;;;;0.00;0.00;;;29.90;48.30;;;;;;5031022;28;20192;-43
2024/01/13 04:51:24;;;;;;;0.00;0.00;;;29.90;48.20;;;;;;5031406;28;20220;-46
2024/01/13 04:53:57;;;;;;;0.00;0.00;;;29.90;48.20;;;;;;5026185;28;20948;-43
2024/01/13 04:56:28;;;;;;;0.00;0.00;;;30.00;48.20;;;;;;5025180;28;20260;-43
2024/01/13 04:58:58;;;;;;;0.00;0.00;;;30.00;48.20;;;;;;5007983;28;20252;-44
2024/01/13 05:01:29;;;;;;;0.00;0.00;;;30.00;48.10;;;;;;5022738;28;20231;-45
2024/01/13 05:04:00;;;;;;;0.00;0.00;;;30.00;48.10;;;;;;5026427;28;20211;-43
2024/01/13 05:06:30;;;;;;;0.00;0.00;;;30.10;48.10;;;;;;5027233;28;20196;-44
2024/01/13 05:09:03;;;;;;;0.00;0.00;;;30.10;48.00;;;;;;5027723;28;20572;-43
2024/01/13 05:11:33;;;;;;;0.00;0.00;;;30.10;47.90;;;;;;5027486;28;20994;-43
2024/01/13 05:14:04;;;;;;;0.00;0.00;;;30.10;47.80;;;;;;5027459;28;20196;-43
2024/01/13 05:16:35;;;;;;;0.00;0.00;;;30.20;47.90;;;;;;5026115;28;20251;-44
2024/01/13 05:19:05;;;;;;;0.00;0.00;;;30.20;47.80;;;;;;5028529;28;20206;-45
2024/01/13 05:21:36;;;;;;;0.00;0.00;;;30.20;47.80;;;;;;5030851;28;20321;-43
2024/01/13 05:24:09;;;;;;;0.00;0.00;;;30.20;47.70;;;;;;5030097;28;20200;-43
2024/01/13 05:26:40;;;;;;;0.00;0.00;;;30.30;47.70;;;;;;5030098;28;20223;-43
2024/01/13 05:29:10;;;;;;;0.00;0.00;;;30.30;47.60;;;;;;5031538;28;20613;-43
2024/01/13 05:31:41;;;;;;;0.00;0.00;;;30.30;47.60;;;;;;5030234;28;20248;-43
2024/01/13 05:34:12;;;;;;;0.00;0.00;;;30.30;47.50;;;;;;5030627;28;20203;-43
2024/01/13 05:36:43;;;;;;;0.00;0.00;;;30.40;47.50;;;;;;5030586;28;20200;-44
2024/01/13 05:39:15;;;;;;;0.00;0.00;;;30.40;47.50;;;;;;5030654;28;20807;-43
2024/01/13 05:41:46;;;;;;;0.00;0.00;;;30.40;47.50;;;;;;5030389;28;20609;-43
2024/01/13 05:44:17;;;;;;;0.00;0.00;;;30.40;47.40;;;;;;5030940;28;20985;-43
2024/01/13 05:46:47;;;;;;;0.00;0.00;;;30.40;47.40;;;;;;5029056;28;20200;-45
2024/01/13 05:49:18;;;;;;;0.00;0.00;;;30.50;47.40;;;;;;5030529;28;20203;-45
2024/01/13 05:51:48;;;;;;;0.00;0.00;;;30.50;47.50;;;;;;5027949;28;20589;-44
2024/01/13 05:54:21;;;;;;;0.00;0.00;;;30.50;47.40;;;;;;5030034;28;20279;-44
2024/01/13 05:56:52;;;;;;;0.00;0.00;;;30.50;47.30;;;;;;5030632;28;20208;-47
2024/01/13 05:59:22;;;;;;;0.00;0.00;;;30.50;47.10;;;;;;5029208;28;20283;-43
2024/01/13 06:01:53;;;;;;;0.00;0.00;;;30.60;46.80;;;;;;5029519;28;20710;-45
2024/01/13 06:04:23;;;;;;;0.00;0.00;;;30.60;46.10;;;;;;5029789;28;20203;-46
2024/01/13 06:06:54;;;;;;;0.00;0.00;;;30.60;45.60;;;;;;5029675;28;20223;-44
2024/01/13 06:09:27;;;;;;;0.00;0.00;;;30.60;45.60;;;;;;5030612;28;20993;-45
2024/01/13 06:11:57;;;;;;;0.00;0.00;;;30.60;44.90;;;;;;5029840;28;20212;-45
2024/01/13 06:14:28;;;;;;;0.00;0.00;;;30.50;42.20;;;;;;5028793;28;20304;-45
2024/01/13 06:16:59;;;;;;;0.00;0.00;;;30.50;41.40;;;;;;5030502;28;20211;-47
2024/01/13 06:19:29;;;;;;;0.00;0.00;;;30.40;41.90;;;;;;5030497;28;20303;-46
2024/01/13 06:22:00;;;;;;;0.00;0.00;;;30.40;41.90;;;;;;5034518;23;20234;-46
2024/01/13 06:24:33;;;;;;;0.00;0.00;;;30.30;41.70;;;;;;5029509;28;20219;-45
2024/01/13 06:27:03;;;;;;;0.00;0.00;;;30.30;41.70;;;;;;5027771;28;20211;-45
2024/01/13 06:29:34;;;;;;;0.00;0.00;;;30.40;42.30;;;;;;5029586;28;20913;-45
2024/01/13 06:32:05;;;;;;;0.00;0.00;;;30.30;42.30;;;;;;5028877;28;20303;-46
2024/01/13 06:34:35;;;;;;;0.00;0.00;;;30.30;42.40;;;;;;5029364;28;20668;-45
2024/01/13 06:37:06;;;;;;;0.00;0.00;;;30.30;42.50;;;;;;5029769;28;20207;-45
2024/01/13 06:39:39;;;;;;;0.00;0.00;;;30.30;42.30;;;;;;5028031;28;20208;-45
2024/01/13 06:42:09;;;;;;;0.00;0.00;;;30.30;42.40;;;;;;5028927;28;20228;-45
2024/01/13 06:44:40;;;;;;;0.00;0.00;;;30.30;42.40;;;;;;5028987;28;20200;-45
2024/01/13 06:47:11;;;;;;;0.00;0.00;;;30.40;42.30;;;;;;5029383;28;20600;-47
2024/01/13 06:49:41;;;;;;;0.00;0.00;;;30.40;42.10;;;;;;5028482;28;20691;-45
2024/01/13 06:52:12;;;;;;;0.00;0.00;;;30.40;41.80;;;;;;5029206;28;20227;-45
2024/01/13 06:54:44;;;;;;;0.00;0.00;;;30.40;41.80;;;;;;5028747;28;20192;-45
2024/01/13 06:57:15;;;;;;;0.00;0.00;;;30.40;41.70;;;;;;5029374;28;20196;-47
2024/01/13 06:59:46;;;;;;;0.00;0.00;;;30.40;41.10;;;;;;5028797;28;20208;-46
2024/01/13 07:02:17;;;;;;;0.00;0.00;;;30.40;40.50;;;;;;5028177;28;20231;-47
2024/01/13 07:04:51;;;;;;;0.00;0.00;;;30.40;40.30;;;;;;5028628;28;20204;-48
2024/01/13 07:07:22;;;;;;;0.00;0.00;;;30.40;40.00;;;;;;5030150;28;20270;-48
2024/01/13 07:09:56;;;;;;;0.00;0.00;;;30.40;39.80;;;;;;5031671;28;20196;-47
2024/01/13 07:12:27;;;;;;;0.00;0.00;;;30.40;39.70;;;;;;5032383;28;20781;-45
2024/01/13 07:14:58;;;;;;;0.00;0.00;;;30.30;39.90;;;;;;5032490;28;20232;-45
2024/01/13 07:17:28;;;;;;;0.00;0.00;;;30.40;40.10;;;;;;5032638;28;20230;-47
2024/01/13 07:19:59;;;;;;;0.00;0.00;;;30.30;40.20;;;;;;5032241;28;20204;-48
2024/01/13 07:22:30;;;;;;;0.00;0.00;;;30.30;40.20;;;;;;5032099;28;20322;-45
2024/01/13 07:25:03;;;;;;;0.00;0.00;;;30.30;40.30;;;;;;5030987;28;20192;-49
2024/01/13 07:27:34;;;;;;;0.00;0.00;;;30.30;40.60;;;;;;5031982;28;20250;-45
2024/01/13 07:30:05;;;;;;;0.00;0.00;;;30.30;40.70;;;;;;5031971;28;20202;-47
2024/01/13 07:32:35;;;;;;;0.00;0.00;;;30.30;41.00;;;;;;5031880;28;20212;-48
2024/01/13 07:35:06;;;;;;;0.00;0.00;;;30.30;41.60;;;;;;5032207;28;20596;-48
2024/01/13 07:37:37;;;;;;;0.00;0.00;;;30.30;40.50;;;;;;5031800;28;20679;-47
2024/01/13 07:40:10;;;;;;;0.00;0.00;;;30.30;40.50;;;;;;5031845;28;20211;-45
2024/01/13 07:42:42;;;;;;;0.00;0.00;;;30.30;40.70;;;;;;5030344;28;20675;-47
2024/01/13 07:45:13;;;;;;;0.00;0.00;;;30.30;40.80;;;;;;5031756;28;20651;-45
2024/01/13 07:47:43;;;;;;;0.00;0.00;;;30.20;40.80;;;;;;5030818;28;20188;-45
2024/01/13 07:50:14;;;;;;;0.00;0.00;;;30.20;40.80;;;;;;5031343;28;20196;-45
2024/01/13 07:52:45;;;;;;;0.00;0.00;;;30.20;40.80;;;;;;5031269;28;20219;-45
2024/01/13 07:55:17;;;;;;;0.00;0.00;;;30.20;40.80;;;;;;5031651;28;20230;-44
2024/01/13 07:57:48;;;;;;;0.00;0.00;;;30.20;40.40;;;;;;5031911;28;20200;-44
2024/01/13 08:00:19;;;;;;;0.00;0.00;;;30.10;40.00;;;;;;5028559;28;20204;-48
2024/01/13 08:02:49;;;;;;;0.00;0.00;;;30.10;40.10;;;;;;5027341;28;20223;-42
2024/01/13 08:05:20;;;;;;;0.00;0.00;;;30.10;40.40;;;;;;5027199;28;20222;-46
2024/01/13 08:07:51;;;;;;;0.00;0.00;;;30.10;40.50;;;;;;5027549;28;20207;-43
2024/01/13 08:10:23;;;;;;;0.00;0.00;;;30.10;40.60;;;;;;5028103;28;20203;-42
2024/01/13 08:12:54;;;;;;;0.00;0.00;;;30.00;40.50;;;;;;5027355;28;20231;-43
2024/01/13 08:15:24;;;;;;;0.00;0.00;;;30.00;40.50;;;;;;5027868;28;20200;-42
2024/01/13 08:17:55;;;;;;;0.00;0.00;;;30.00;40.50;;;;;;5027268;28;20568;-42
2024/01/13 08:20:26;;;;;;;0.00;0.00;;;30.00;40.50;;;;;;5027474;28;20192;-44
2024/01/13 08:22:57;;;;;;;0.00;0.00;;;29.90;40.40;;;;;;5025352;28;20239;-45
2024/01/13 08:25:29;;;;;;;0.00;0.00;;;29.90;40.50;;;;;;5008168;28;20208;-45
2024/01/13 08:28:00;;;;;;;0.00;0.00;;;29.90;40.50;;;;;;5006814;28;20207;-43
2024/01/13 08:30:30;;;;;;;0.00;0.00;;;29.90;40.50;;;;;;5022747;28;20204;-43
2024/01/13 08:33:01;;;;;;;0.00;0.00;;;29.90;40.60;;;;;;5028203;28;20224;-42
2024/01/13 08:35:32;;;;;;;0.00;0.00;;;29.90;40.70;;;;;;5027477;28;20748;-43
2024/01/13 08:38:02;;;;;;;0.00;0.00;;;29.80;40.60;;;;;;5026154;28;20215;-41
2024/01/13 08:40:35;;;;;;;0.00;0.00;;;29.80;40.50;;;;;;5026938;28;20207;-47
2024/01/13 08:43:05;;;;;;;0.00;0.00;;;29.80;40.50;;;;;;5026949;28;20227;-42
2024/01/13 08:45:36;;;;;;;0.00;0.00;;;29.80;40.60;;;;;;5027335;28;20616;-44
2024/01/13 08:48:07;;;;;;;0.00;0.00;;;29.80;40.50;;;;;;5028287;28;20196;-44
2024/01/13 08:50:38;;;;;;;0.00;0.00;;;29.70;40.40;;;;;;5027073;28;20612;-46
2024/01/13 08:53:09;;;;;;;0.00;0.00;;;29.70;40.30;;;;;;5026603;28;20287;-43
2024/01/13 08:55:42;;;;;;;0.00;0.00;;;29.70;40.30;;;;;;5030695;28;20648;-43
2024/01/13 08:58:12;;;;;;;0.00;0.00;;;29.70;40.30;;;;;;5031081;28;20565;-44
2024/01/13 09:00:43;;;;;;;0.00;0.00;;;29.70;40.30;;;;;;5030241;28;20188;-45
2024/01/13 09:03:13;;;;;;;0.00;0.00;;;29.60;40.20;;;;;;5030813;28;20837;-43
2024/01/13 09:05:44;;;;;;;0.00;0.00;;;29.60;40.20;;;;;;5030742;28;20203;-47
2024/01/13 09:08:15;;;;;;;0.00;0.00;;;29.60;40.20;;;;;;5030564;28;20214;-45
2024/01/13 09:10:47;;;;;;;0.00;0.00;;;29.50;40.10;;;;;;5031417;28;20628;-42
2024/01/13 09:13:18;;;;;;;0.00;0.00;;;29.50;40.10;;;;;;5031324;28;20211;-47
2024/01/13 09:15:49;;;;;;;0.00;0.00;;;29.50;40.20;;;;;;5030872;28;20208;-45
2024/01/13 09:18:19;;;;;;;0.00;0.00;;;29.50;40.30;;;;;;5031181;28;20286;-44
2024/01/13 09:20:50;;;;;;;0.00;0.00;;;29.40;40.30;;;;;;5030255;28;20204;-44
2024/01/13 09:23:21;;;;;;;0.00;0.00;;;29.40;40.20;;;;;;5030566;28;20228;-48
2024/01/13 09:25:53;;;;;;;0.00;0.00;;;29.40;40.20;;;;;;5030371;28;20682;-45
2024/01/13 09:28:24;;;;;;;0.00;0.00;;;29.40;40.20;;;;;;5030955;28;20200;-45
2024/01/13 09:30:54;;;;;;;0.00;0.00;;;29.30;40.20;;;;;;5030271;28;20996;-45
2024/01/13 09:33:25;;;;;;;0.00;0.00;;;29.30;40.20;;;;;;5030585;28;20196;-43
2024/01/13 09:35:56;;;;;;;0.00;0.00;;;29.30;40.30;;;;;;5029812;28;20200;-43
2024/01/13 09:38:26;;;;;;;0.00;0.00;;;29.30;40.30;;;;;;5030370;28;20694;-41
2024/01/13 09:40:59;;;;;;;0.00;0.00;;;29.30;40.30;;;;;;5029195;28;20204;-41
2024/01/13 09:43:48;;;;;;;0.00;0.00;;;29.30;40.30;;;;;;5029823;28;20608;-44
2024/01/13 09:46:18;;;;;;;0.00;0.00;;;29.20;40.20;;;;;;5029753;28;20591;-41
2024/01/13 09:48:51;;;;;;;0.00;0.00;;;29.20;40.20;;;;;;5030891;28;20622;-44
2024/01/13 09:51:22;;;;;;;0.00;0.00;;;29.20;40.20;;;;;;5029705;28;20219;-44
2024/01/13 09:53:57;;;;;;;0.00;0.00;;;29.20;40.20;;;;;;5029674;28;20211;-42
2024/01/13 09:56:36;;;;;;;0.00;0.00;;;29.10;40.10;;;;;;5017382;28;20219;-44
2024/01/13 09:59:07;;;;;;;0.00;0.00;;;29.10;40.20;;;;;;5010590;28;20205;-44
2024/01/13 10:01:38;;;;;;;0.00;0.00;;;29.10;40.30;;;;;;5010192;28;20299;-42
2024/01/13 10:04:09;;;;;;;0.00;0.00;;;29.00;40.20;;;;;;5010112;28;20816;-42
2024/01/13 10:06:41;;;;;;;0.00;0.00;;;29.00;40.40;;;;;;5008763;28;20667;-44
2024/01/13 10:09:12;;;;;;;0.00;0.00;;;29.00;40.50;;;;;;5010265;28;20236;-46
2024/01/13 10:11:45;;;;;;;0.00;0.00;;;29.00;40.50;;;;;;5010446;28;20304;-44
2024/01/13 10:14:16;;;;;;;0.00;0.00;;;28.90;40.50;;;;;;5010173;28;20295;-41
2024/01/13 10:16:47;;;;;;;0.00;0.00;;;28.90;40.50;;;;;;5024280;28;20192;-42
2024/01/13 10:19:17;;;;;;;0.00;0.00;;;28.90;40.60;;;;;;5029610;28;20573;-45
2024/01/13 10:21:48;;;;;;;0.00;0.00;;;28.90;40.70;;;;;;5029027;28;20258;-43
2024/01/13 10:24:22;;;;;;;0.00;0.00;;;28.90;40.70;;;;;;5029902;28;20208;-43
2024/01/13 10:26:54;;;;;;;0.00;0.00;;;28.90;40.70;;;;;;5028878;28;20201;-43
2024/01/13 10:29:26;;;;;;;0.00;0.00;;;28.80;40.70;;;;;;5030300;28;20199;-41
2024/01/13 10:31:57;;;;;;;0.00;0.00;;;28.80;40.70;;;;;;5030038;28;20220;-41
2024/01/13 10:34:27;;;;;;;0.00;0.00;;;28.80;40.70;;;;;;5029053;28;20785;-41
2024/01/13 10:37:10;;;;;;;0.00;0.00;;;28.80;40.70;;;;;;5029232;28;20204;-41
2024/01/13 10:39:42;;;;;;;0.00;0.00;;;28.80;40.80;;;;;;5029145;28;20283;-40
2024/01/13 10:42:19;;;;;;;0.00;0.00;;;28.70;40.70;;;;;;5028869;28;20307;-41
2024/01/13 10:44:56;;;;;;;0.00;0.00;;;28.70;40.70;;;;;;5028988;28;20247;-45
2024/01/13 10:47:32;;;;;;;0.00;0.00;;;28.70;40.70;;;;;;5029506;28;20200;-46
2024/01/13 10:50:04;;;;;;;0.00;0.00;;;28.70;40.80;;;;;;5028906;28;20228;-44
2024/01/13 10:52:42;;;;;;;0.00;0.00;;;28.70;40.80;;;;;;5028842;28;20242;-45
2024/01/13 10:55:14;;;;;;;0.00;0.00;;;28.60;40.80;;;;;;5028984;28;20208;-42
2024/01/13 10:57:48;;;;;;;0.00;0.00;;;28.60;40.80;;;;;;5029004;28;20215;-43
2024/01/13 11:00:21;;;;;;;0.00;0.00;;;28.60;40.70;;;;;;5029535;28;20212;-41
2024/01/13 11:02:52;;;;;;;0.00;0.00;;;28.60;40.70;;;;;;5026869;28;20227;-44
2024/01/13 11:05:24;;;;;;;0.00;0.00;;;28.50;40.60;;;;;;5027662;28;20223;-46
2024/01/13 11:07:55;;;;;;;0.00;0.00;;;28.50;40.60;;;;;;5028141;28;20766;-42
2024/01/13 11:10:29;;;;;;;0.00;0.00;;;28.50;40.50;;;;;;5029316;28;20211;-45
2024/01/13 11:13:06;;;;;;;0.00;0.00;;;28.50;40.50;;;;;;5028616;28;20307;-45
2024/01/13 11:15:41;;;;;;;0.00;0.00;;;28.40;40.40;;;;;;5028724;28;20196;-42
2024/01/13 11:18:14;;;;;;;0.00;0.00;;;28.40;40.50;;;;;;5028405;28;20203;-42
2024/01/13 11:21:03;;;;;;;0.00;0.00;;;28.40;40.50;;;;;;5028063;28;20287;-43
2024/01/13 11:23:40;;;;;;;0.00;0.00;;;28.40;40.50;;;;;;5028583;28;20319;-42
2024/01/13 11:26:12;;;;;;;0.00;0.00;;;28.30;40.40;;;;;;5028647;28;20211;-43
2024/01/13 11:29:02;;;;;;;0.00;0.00;;;28.30;40.50;;;;;;5027774;28;20292;-41
2024/01/13 11:31:39;;;;;;;0.00;0.00;;;28.30;40.50;;;;;;5026891;28;20281;-41
2024/01/13 11:34:12;;;;;;;0.00;0.00;;;28.30;40.50;;;;;;5027584;28;20206;-42
2024/01/13 11:36:43;;;;;;;0.00;0.00;;;28.20;40.50;;;;;;5027190;28;20700;-41
2024/01/13 11:39:14;;;;;;;0.00;0.00;;;28.20;40.60;;;;;;5029446;28;20196;-41
2024/01/13 11:41:48;;;;;;;0.00;0.00;;;28.20;40.60;;;;;;5031815;28;20627;-42
2024/01/13 11:44:27;;;;;;;0.00;0.00;;;28.20;40.60;;;;;;5031428;28;20604;-42
2024/01/13 11:47:06;;;;;;;0.00;0.00;;;28.20;40.60;;;;;;5031998;28;20203;-42
2024/01/13 11:49:38;;;;;;;0.00;0.00;;;28.20;40.70;;;;;;5032215;28;20231;-43
2024/01/13 11:52:09;;;;;;;0.00;0.00;;;28.20;40.60;;;;;;5031626;28;20222;-45
2024/01/13 11:54:40;;;;;;;0.00;0.00;;;28.10;40.60;;;;;;5032087;28;20269;-45
2024/01/13 11:57:12;;;;;;;0.00;0.00;;;28.10;40.60;;;;;;5031857;28;20196;-41
2024/01/13 11:59:45;;;;;;;0.00;0.00;;;28.10;40.70;;;;;;5031597;28;20192;-44
2024/01/13 12:02:16;;;;;;;0.00;0.00;;;28.10;40.70;;;;;;5030925;28;20278;-43
2024/01/13 12:04:49;;;;;;;0.00;0.00;;;28.00;40.70;;;;;;5030696;28;20703;-46
2024/01/13 12:07:20;;;;;;;0.00;0.00;;;28.00;40.70;;;;;;5031406;28;20611;-46
2024/01/13 12:09:52;;;;;;;0.00;0.00;;;28.00;40.70;;;;;;5031409;28;20188;-41
2024/01/13 12:12:23;;;;;;;0.00;0.00;;;28.00;40.70;;;;;;5028664;28;20208;-42
2024/01/13 12:14:55;;;;;;;0.00;0.00;;;28.00;40.80;;;;;;5031356;28;20361;-47
2024/01/13 12:17:27;;;;;;;0.00;0.00;;;28.00;41.40;;;;;;5028506;28;20195;-45
2024/01/13 12:19:58;;;;;;;0.00;0.00;;;27.90;40.70;;;;;;5029663;28;20194;-45
2024/01/13 12:22:29;;;;;;;0.00;0.00;;;27.90;40.80;;;;;;5011207;28;20229;-46
2024/01/13 12:24:59;;;;;;;0.00;0.00;;;27.90;40.80;;;;;;5019769;28;20195;-45
2024/01/13 12:27:30;;;;;;;0.00;0.00;;;27.90;40.80;;;;;;5030451;28;20698;-48
2024/01/13 12:30:03;;;;;;;0.00;0.00;;;27.90;40.90;;;;;;5030871;28;20789;-46
2024/01/13 12:32:34;;;;;;;0.00;0.00;;;27.90;40.90;;;;;;5029632;28;20226;-49
2024/01/13 12:35:04;;;;;;;0.00;0.00;;;27.80;40.80;;;;;;5031533;28;20552;-49
2024/01/13 12:37:35;;;;;;;0.00;0.00;;;27.80;40.80;;;;;;5031349;28;20196;-45
2024/01/13 12:40:07;;;;;;;0.00;0.00;;;27.80;40.80;;;;;;5031062;28;20200;-45
2024/01/13 12:42:41;;;;;;;0.00;0.00;;;27.80;40.90;;;;;;5031204;28;20255;-49
2024/01/13 12:45:16;;;;;;;0.00;0.00;;;27.80;40.90;;;;;;5031315;28;20287;-50
2024/01/13 12:47:46;;;;;;;0.00;0.00;;;27.80;40.90;;;;;;5031702;28;20283;-47
2024/01/13 12:50:18;;;;;;;0.00;0.00;;;27.70;40.90;;;;;;5031675;28;20207;-46
2024/01/13 12:52:49;;;;;;;0.00;0.00;;;27.70;40.90;;;;;;5030458;28;20299;-48
2024/01/13 12:55:20;;;;;;;0.00;0.00;;;27.70;41.00;;;;;;5031292;28;20600;-48
2024/01/13 12:57:50;;;;;;;0.00;0.00;;;27.70;41.00;;;;;;5031216;28;20204;-48
2024/01/13 13:00:25;;;;;;;0.00;0.00;;;27.70;41.00;;;;;;5031218;28;20199;-44
2024/01/13 13:02:55;;;;;;;0.00;0.00;;;27.60;40.90;;;;;;5030039;28;20750;-48
2024/01/13 13:05:27;;;;;;;0.00;0.00;;;27.60;41.00;;;;;;5030503;28;20802;-47
2024/01/13 13:07:57;;;;;;;0.00;0.00;;;27.60;41.00;;;;;;5030625;28;20205;-47
2024/01/13 13:10:28;;;;;;;0.00;0.00;;;27.60;41.00;;;;;;5030775;28;20197;-45